createdAt,value
2022-10-20T00:02:07.626Z,100675.38
2022-10-20T00:04:35.541Z,100683.31
2022-10-20T00:07:03.224Z,100678.75
2022-10-20T00:09:30.950Z,100670.38
2022-10-20T00:11:58.647Z,100667.13
2022-10-20T00:14:26.390Z,100663.50
2022-10-20T00:16:55.488Z,100656.81
2022-10-20T00:19:23.219Z,100657.25
2022-10-20T00:21:51.001Z,100646.84
2022-10-20T00:24:20.801Z,100656.69
2022-10-20T00:26:48.947Z,100658.31
2022-10-20T00:31:49.524Z,100657.53
2022-10-20T00:34:18.667Z,100659.50
2022-10-20T00:36:50.297Z,100662.69
2022-10-20T00:39:19.218Z,100649.06
2022-10-20T00:41:46.852Z,100646.44
2022-10-20T00:44:49.753Z,100651.78
2022-10-20T00:47:20.540Z,100649.06
2022-10-20T00:49:50.291Z,100650.16
2022-10-20T00:52:21.385Z,100644.88
2022-10-20T00:54:50.657Z,100644.03
2022-10-20T00:57:18.439Z,100637.16
2022-10-20T00:59:46.559Z,100621.47
2022-10-20T01:02:14.429Z,100615.50
2022-10-20T01:04:42.844Z,100619.03
2022-10-20T01:07:11.875Z,100613.78
2022-10-20T01:09:39.995Z,100605.25
2022-10-20T01:12:19.212Z,100606.31
2022-10-20T01:14:56.939Z,100607.84
2022-10-20T01:17:32.822Z,100608.63
2022-10-20T01:20:25.604Z,100620.19
2022-10-20T01:23:26.854Z,100620.44
2022-10-20T01:26:20.946Z,100622.72
2022-10-20T01:28:55.378Z,100622.00
2022-10-20T01:31:31.161Z,100620.50
2022-10-20T01:34:09.534Z,100613.22
2022-10-20T01:36:39.983Z,100616.16
2022-10-20T01:39:13.514Z,100610.91
2022-10-20T01:41:47.179Z,100608.31
2022-10-20T01:44:19.633Z,100616.16
2022-10-20T01:46:47.962Z,100607.47
2022-10-20T01:49:16.499Z,100606.75
2022-10-20T01:51:44.239Z,100603.44
2022-10-20T01:54:21.745Z,100594.63
2022-10-20T01:57:01.797Z,100591.25
2022-10-20T01:59:38.902Z,100595.66
2022-10-20T02:02:22.408Z,100586.34
2022-10-20T02:05:03.715Z,100584.81
2022-10-20T02:07:33.940Z,100574.28
2022-10-20T02:10:09.355Z,100576.84
2022-10-20T02:12:41.773Z,100567.38
2022-10-20T02:15:16.091Z,100570.25
2022-10-20T02:17:47.831Z,100563.22
2022-10-20T02:20:16.817Z,100573.41
2022-10-20T02:22:46.314Z,100576.22
2022-10-20T02:25:14.813Z,100579.81
2022-10-20T02:27:47.215Z,100565.28
2022-10-20T02:30:18.883Z,100563.41
2022-10-20T02:32:52.532Z,100570.00
2022-10-20T02:35:22.913Z,100570.19
2022-10-20T02:37:50.883Z,100564.06
2022-10-20T02:40:19.271Z,100569.38
2022-10-20T02:42:47.335Z,100567.84
2022-10-20T02:45:16.730Z,100557.13
2022-10-20T02:47:44.442Z,100560.75
2022-10-20T02:50:12.411Z,100560.66
2022-10-20T02:52:40.709Z,100568.66
2022-10-20T02:55:09.188Z,100566.44
2022-10-20T02:57:37.120Z,100570.03
2022-10-20T03:00:06.058Z,100570.09
2022-10-20T03:02:35.143Z,100571.00
2022-10-20T03:05:03.146Z,100573.69
2022-10-20T03:07:30.792Z,100583.38
2022-10-20T03:09:58.813Z,100568.78
2022-10-20T03:12:28.901Z,100560.72
2022-10-20T03:14:59.128Z,100566.63
2022-10-20T03:17:26.856Z,100567.03
2022-10-20T03:19:55.868Z,100580.81
2022-10-20T03:22:23.614Z,100574.47
2022-10-20T03:24:51.274Z,100564.88
2022-10-20T03:27:19.324Z,100568.50
2022-10-20T03:29:46.958Z,100551.72
2022-10-20T03:32:14.652Z,100558.09
2022-10-20T03:34:42.329Z,100539.22
2022-10-20T03:37:11.364Z,100536.38
2022-10-20T03:39:39.165Z,100536.19
2022-10-20T03:42:06.815Z,100524.53
2022-10-20T03:44:34.563Z,100522.47
2022-10-20T03:47:02.178Z,100517.84
2022-10-20T03:49:31.449Z,100526.75
2022-10-20T03:51:59.669Z,100516.63
2022-10-20T03:54:28.714Z,100511.78
2022-10-20T03:56:56.686Z,100514.09
2022-10-20T03:59:28.010Z,100516.31
2022-10-20T04:01:58.264Z,100517.44
2022-10-20T04:04:26.019Z,100517.88
2022-10-20T04:06:53.674Z,100513.22
2022-10-20T04:09:21.309Z,100511.56
2022-10-20T04:11:50.320Z,100519.41
2022-10-20T04:14:18.193Z,100519.41
2022-10-20T04:16:45.854Z,100525.63
2022-10-20T04:19:13.554Z,100525.72
2022-10-20T04:21:41.217Z,100521.28
2022-10-20T04:24:08.901Z,100510.50
2022-10-20T04:26:36.566Z,100507.19
2022-10-20T04:29:05.630Z,100501.00
2022-10-20T04:31:33.295Z,100484.97
2022-10-20T04:34:00.961Z,100472.13
2022-10-20T04:36:28.628Z,100467.84
2022-10-20T04:38:56.289Z,100472.75
2022-10-20T04:41:24.144Z,100482.38
2022-10-20T04:43:52.822Z,100477.16
2022-10-20T04:46:21.836Z,100478.16
2022-10-20T04:48:49.667Z,100473.84
2022-10-20T04:51:17.752Z,100470.28
2022-10-20T04:53:45.595Z,100479.59
2022-10-20T04:56:19.365Z,100471.28
2022-10-20T04:58:48.909Z,100467.00
2022-10-20T05:01:16.860Z,100461.44
2022-10-20T05:03:46.074Z,100473.41
2022-10-20T05:06:16.141Z,100467.22
2022-10-20T05:08:46.504Z,100459.78
2022-10-20T05:11:16.488Z,100447.53
2022-10-20T05:13:45.119Z,100434.66
2022-10-20T05:16:13.310Z,100431.44
2022-10-20T05:18:41.810Z,100416.03
2022-10-20T05:21:13.160Z,100412.41
2022-10-20T05:23:41.624Z,100423.59
2022-10-20T05:26:11.651Z,100424.38
2022-10-20T05:28:39.891Z,100422.59
2022-10-20T05:31:09.497Z,100442.16
2022-10-20T05:33:37.866Z,100434.25
2022-10-20T05:36:11.962Z,100436.91
2022-10-20T05:38:40.707Z,100427.38
2022-10-20T05:41:10.192Z,100428.31
2022-10-20T05:43:38.160Z,100430.03
2022-10-20T05:46:06.358Z,100423.28
2022-10-20T05:48:34.129Z,100425.97
2022-10-20T05:51:12.097Z,100424.53
2022-10-20T05:53:44.378Z,100431.31
2022-10-20T05:56:16.657Z,100422.56
2022-10-20T05:58:45.217Z,100422.84
2022-10-20T06:01:17.480Z,100414.78
2022-10-20T06:03:48.828Z,100428.50
2022-10-20T06:06:17.024Z,100419.06
2022-10-20T06:08:46.263Z,100420.03
2022-10-20T06:11:16.278Z,100406.03
2022-10-20T06:13:46.047Z,100422.00
2022-10-20T06:16:18.311Z,100425.44
2022-10-20T06:18:46.059Z,100436.50
2022-10-20T06:21:16.099Z,100431.88
2022-10-20T06:23:44.114Z,100459.59
2022-10-20T06:26:17.467Z,100461.47
2022-10-20T06:28:46.462Z,100462.03
2022-10-20T06:31:16.087Z,100480.06
2022-10-20T06:33:44.501Z,100478.91
2022-10-20T06:36:13.369Z,100473.50
2022-10-20T06:38:42.067Z,100474.25
2022-10-20T06:41:12.867Z,100480.47
2022-10-20T06:43:42.173Z,100495.84
2022-10-20T06:46:13.276Z,100496.53
2022-10-20T06:48:41.051Z,100505.91
2022-10-20T06:51:11.997Z,100498.06
2022-10-20T06:53:44.072Z,100502.16
2022-10-20T06:56:16.417Z,100496.63
2022-10-20T06:58:47.457Z,100498.50
2022-10-20T07:01:18.236Z,100495.91
2022-10-20T07:03:48.331Z,100479.31
2022-10-20T07:06:20.203Z,100467.03
2022-10-20T07:08:48.372Z,100456.50
2022-10-20T07:11:17.869Z,100448.72
2022-10-20T07:13:49.051Z,100451.22
2022-10-20T07:16:18.802Z,100445.84
2022-10-20T07:18:46.789Z,100445.84
2022-10-20T07:21:16.743Z,100443.88
2022-10-20T07:23:45.143Z,100456.69
2022-10-20T07:26:14.590Z,100454.25
2022-10-20T07:28:43.983Z,100465.34
2022-10-20T07:31:15.304Z,100489.34
2022-10-20T07:33:43.051Z,100477.84
2022-10-20T07:36:15.789Z,100473.44
2022-10-20T07:38:43.901Z,100487.22
2022-10-20T07:41:12.343Z,100494.78
2022-10-20T07:43:40.715Z,100488.59
2022-10-20T07:46:09.254Z,100471.78
2022-10-20T07:48:39.115Z,100466.38
2022-10-20T07:51:28.330Z,100463.97
2022-10-20T07:54:00.579Z,100476.94
2022-10-20T07:56:30.913Z,100479.66
2022-10-20T07:58:59.281Z,100483.16
2022-10-20T08:01:27.087Z,100465.88
2022-10-20T08:03:56.134Z,100470.47
2022-10-20T08:06:24.185Z,100476.53
2022-10-20T08:08:51.979Z,100465.97
2022-10-20T08:11:20.151Z,100473.69
2022-10-20T08:13:47.945Z,100477.94
2022-10-20T08:16:17.327Z,100479.75
2022-10-20T08:18:52.004Z,100476.47
2022-10-20T08:21:22.724Z,100470.47
2022-10-20T08:23:51.324Z,100481.50
2022-10-20T08:26:21.239Z,100477.75
2022-10-20T08:28:49.517Z,100470.72
2022-10-20T08:31:17.348Z,100461.78
2022-10-20T08:33:48.825Z,100448.31
2022-10-20T08:36:19.172Z,100433.38
2022-10-20T08:38:48.306Z,100437.22
2022-10-20T08:41:19.342Z,100449.25
2022-10-20T08:43:49.132Z,100457.88
2022-10-20T08:46:19.787Z,100449.91
2022-10-20T08:48:49.141Z,100455.69
2022-10-20T08:51:20.177Z,100455.44
2022-10-20T08:53:51.718Z,100451.50
2022-10-20T08:56:23.947Z,100471.72
2022-10-20T08:58:52.339Z,100469.59
2022-10-20T09:01:22.926Z,100474.97
2022-10-20T09:03:55.579Z,100478.13
2022-10-20T09:06:23.493Z,100478.56
2022-10-20T09:08:53.221Z,100479.81
2022-10-20T09:11:26.551Z,100470.06
2022-10-20T09:13:54.758Z,100463.53
2022-10-20T09:16:41.584Z,100467.69
2022-10-20T09:19:19.093Z,100465.16
2022-10-20T09:21:50.816Z,100465.22
2022-10-20T09:24:21.944Z,100462.22
2022-10-20T09:26:59.120Z,100476.59
2022-10-20T09:29:36.931Z,100479.09
2022-10-20T09:32:27.964Z,100469.91
2022-10-20T09:34:52.642Z,100469.00
2022-10-20T09:37:20.803Z,100458.88
2022-10-20T09:39:57.122Z,100458.06
2022-10-20T09:42:29.873Z,100453.44
2022-10-20T09:45:00.713Z,100455.53
2022-10-20T09:47:29.927Z,100439.09
2022-10-20T09:50:01.273Z,100465.25
2022-10-20T09:52:34.586Z,100457.16
2022-10-20T09:55:08.869Z,100452.16
2022-10-20T09:57:37.377Z,100452.34
2022-10-20T10:00:25.263Z,100453.84
2022-10-20T10:03:10.065Z,100446.91
2022-10-20T10:05:37.893Z,100447.94
2022-10-20T10:08:06.137Z,100446.97
2022-10-20T10:10:35.171Z,100449.13
2022-10-20T10:15:38.888Z,100439.94
2022-10-20T10:18:14.905Z,100430.34
2022-10-20T10:20:42.809Z,100423.84
2022-10-20T10:23:20.421Z,100415.75
2022-10-20T10:25:50.550Z,100407.47
2022-10-20T10:28:28.843Z,100419.81
2022-10-20T10:31:08.159Z,100418.28
2022-10-20T10:33:35.847Z,100408.56
2022-10-20T10:36:06.470Z,100389.69
2022-10-20T10:38:39.155Z,100386.75
2022-10-20T10:41:16.926Z,100378.97
2022-10-20T10:43:50.795Z,100370.03
2022-10-20T10:46:21.520Z,100392.69
2022-10-20T10:49:09.355Z,100384.75
2022-10-20T10:51:50.580Z,100382.13
2022-10-20T10:54:35.708Z,100381.38
2022-10-20T10:57:13.960Z,100374.72
2022-10-20T10:59:44.921Z,100375.38
2022-10-20T11:02:45.431Z,100388.13
2022-10-20T11:05:44.014Z,100396.06
2022-10-20T11:08:27.619Z,100387.47
2022-10-20T11:11:04.115Z,100382.75
2022-10-20T11:13:38.109Z,100385.53
2022-10-20T11:16:16.859Z,100381.28
2022-10-20T11:19:08.561Z,100377.72
2022-10-20T11:21:47.312Z,100375.41
2022-10-20T11:24:44.443Z,100378.72
2022-10-20T11:27:15.395Z,100371.72
2022-10-20T11:29:48.442Z,100369.19
2022-10-20T11:32:26.590Z,100375.09
2022-10-20T11:35:02.244Z,100366.72
2022-10-20T11:37:32.870Z,100364.22
2022-10-20T11:40:14.779Z,100353.91
2022-10-20T11:42:51.002Z,100351.28
2022-10-20T11:45:36.817Z,100353.22
2022-10-20T11:48:13.087Z,100359.13
2022-10-20T11:50:43.221Z,100360.91
2022-10-20T11:53:40.001Z,100364.63
2022-10-20T11:56:26.297Z,100356.78
2022-10-20T11:59:14.909Z,100347.41
2022-10-20T12:02:04.577Z,100352.66
2022-10-20T12:05:06.280Z,100346.75
2022-10-20T12:07:54.168Z,100355.53
2022-10-20T12:10:44.754Z,100344.13
2022-10-20T12:13:28.315Z,100338.66
2022-10-20T12:15:55.977Z,100322.69
2022-10-20T12:18:28.453Z,100323.28
2022-10-20T12:21:02.645Z,100296.59
2022-10-20T12:24:07.374Z,100284.44
2022-10-20T12:27:07.776Z,100306.47
2022-10-20T12:29:53.922Z,100321.66
2022-10-20T12:33:09.813Z,100326.81
2022-10-20T12:36:00.827Z,100334.59
2022-10-20T12:38:31.681Z,100322.25
2022-10-20T12:41:02.005Z,100320.56
2022-10-20T12:43:36.347Z,100309.28
2022-10-20T12:46:11.535Z,100320.50
2022-10-20T12:48:45.983Z,100313.13
2022-10-20T12:51:24.307Z,100304.16
2022-10-20T12:53:58.562Z,100304.94
2022-10-20T12:56:35.094Z,100299.03
2022-10-20T12:59:23.588Z,100295.19
2022-10-20T13:02:40.476Z,100284.41
2022-10-20T13:05:40.763Z,100275.38
2022-10-20T13:08:25.898Z,100267.81
2022-10-20T13:10:55.214Z,100271.09
2022-10-20T13:13:52.006Z,100270.06
2022-10-20T13:16:22.441Z,100259.16
2022-10-20T13:18:52.418Z,100253.72
2022-10-20T13:21:27.563Z,100235.69
2022-10-20T13:24:01.477Z,100230.81
2022-10-20T13:26:32.854Z,100229.13
2022-10-20T13:29:02.662Z,100224.75
2022-10-20T13:31:35.335Z,100211.78
2022-10-20T13:34:13.876Z,100222.31
2022-10-20T13:36:59.684Z,100232.19
2022-10-20T13:39:37.238Z,100221.84
2022-10-20T13:42:18.010Z,100217.34
2022-10-20T13:44:55.956Z,100226.25
2022-10-20T13:47:43.895Z,100217.44
2022-10-20T13:50:14.717Z,100213.81
2022-10-20T13:52:44.802Z,100218.84
2022-10-20T13:55:19.369Z,100225.84
2022-10-20T13:57:56.259Z,100232.31
2022-10-20T14:00:27.694Z,100239.31
2022-10-20T14:02:59.522Z,100241.16
2022-10-20T14:05:30.282Z,100242.28
2022-10-20T14:08:04.585Z,100241.53
2022-10-20T14:10:40.164Z,100246.00
2022-10-20T14:13:14.749Z,100242.53
2022-10-20T14:15:48.116Z,100231.81
2022-10-20T14:18:23.919Z,100229.84
2022-10-20T14:20:56.850Z,100221.16
2022-10-20T14:23:26.303Z,100234.34
2022-10-20T14:25:54.796Z,100236.56
2022-10-20T14:28:35.133Z,100224.06
2022-10-20T14:31:03.852Z,100236.19
2022-10-20T14:33:32.875Z,100239.59
2022-10-20T14:36:02.622Z,100226.41
2022-10-20T14:38:35.337Z,100219.50
2022-10-20T14:41:03.307Z,100217.81
2022-10-20T14:43:39.022Z,100217.03
2022-10-20T14:46:08.822Z,100208.38
2022-10-20T14:48:39.114Z,100197.81
2022-10-20T14:51:31.342Z,100201.28
2022-10-20T14:54:26.794Z,100191.72
2022-10-20T14:56:56.146Z,100187.53
2022-10-20T14:59:27.573Z,100191.84
2022-10-20T15:02:02.348Z,100170.25
2022-10-20T15:04:33.443Z,100149.50
2022-10-20T15:07:06.664Z,100144.38
2022-10-20T15:09:40.979Z,100135.56
2022-10-20T15:12:16.037Z,100127.94
2022-10-20T15:14:47.869Z,100121.50
2022-10-20T15:17:35.835Z,100114.78
2022-10-20T15:20:33.150Z,100113.16
2022-10-20T15:23:02.545Z,100114.84
2022-10-20T15:25:32.586Z,100121.84
2022-10-20T15:28:00.767Z,100120.06
2022-10-20T15:30:30.986Z,100129.81
2022-10-20T15:32:58.939Z,100125.56
2022-10-20T15:35:30.714Z,100122.88
2022-10-20T15:37:58.374Z,100118.50
2022-10-20T15:40:26.429Z,100118.38
2022-10-20T15:42:54.135Z,100119.34
2022-10-20T15:45:25.366Z,100113.06
2022-10-20T15:47:54.451Z,100112.34
2022-10-20T15:50:24.233Z,100111.78
2022-10-20T15:52:54.136Z,100117.72
2022-10-20T15:55:26.424Z,100116.16
2022-10-20T15:57:55.727Z,100125.03
2022-10-20T16:00:26.325Z,100104.84
2022-10-20T16:02:56.066Z,100102.78
2022-10-20T16:05:26.154Z,100102.38
2022-10-20T16:07:55.335Z,100103.41
2022-10-20T16:10:24.385Z,100099.22
2022-10-20T16:12:52.896Z,100101.16
2022-10-20T16:15:20.768Z,100098.06
2022-10-20T16:20:23.205Z,100095.66
2022-10-20T16:22:50.986Z,100100.22
2022-10-20T16:25:18.789Z,100080.88
2022-10-20T16:27:47.000Z,100085.63
2022-10-20T16:30:16.427Z,100080.53
2022-10-20T16:32:44.133Z,100083.88
2022-10-20T16:35:12.050Z,100085.91
2022-10-20T16:37:41.084Z,100086.09
2022-10-20T16:40:09.724Z,100079.34
2022-10-20T16:42:37.344Z,100085.25
2022-10-20T16:45:05.879Z,100086.09
2022-10-20T16:47:33.859Z,100082.72
2022-10-20T16:50:01.730Z,100096.69
2022-10-20T16:52:29.549Z,100096.69
2022-10-20T16:54:58.465Z,100104.47
2022-10-20T16:57:28.179Z,100114.44
2022-10-20T16:59:55.897Z,100116.19
2022-10-20T17:02:23.975Z,100103.72
2022-10-20T17:04:51.897Z,100104.47
2022-10-20T17:07:19.723Z,100102.69
2022-10-20T17:09:47.358Z,100093.09
2022-10-20T17:12:16.462Z,100089.53
2022-10-20T17:14:44.229Z,100094.00
2022-10-20T17:17:11.897Z,100099.22
2022-10-20T17:19:40.901Z,100105.38
2022-10-20T17:24:39.034Z,100087.09
2022-10-20T17:27:06.670Z,100074.88
2022-10-20T17:29:35.942Z,100060.81
2022-10-20T17:32:03.911Z,100051.09
2022-10-20T17:34:31.610Z,100042.53
2022-10-20T17:36:59.301Z,100043.72
2022-10-20T17:39:28.396Z,100031.69
2022-10-20T17:41:56.123Z,100024.84
2022-10-20T17:44:24.137Z,100026.47
2022-10-20T17:46:53.313Z,100037.63
2022-10-20T17:49:21.052Z,100038.16
2022-10-20T17:51:48.709Z,100042.47
2022-10-20T17:54:16.603Z,100049.38
2022-10-20T17:56:44.260Z,100057.03
2022-10-20T18:01:41.674Z,100041.38
2022-10-20T18:04:13.182Z,100027.19
2022-10-20T18:06:41.767Z,100033.44
2022-10-20T18:09:11.954Z,100044.63
2022-10-20T18:11:41.377Z,100061.16
2022-10-20T18:14:09.013Z,100063.56
2022-10-20T18:16:38.350Z,100060.22
2022-10-20T18:19:06.951Z,100064.53
2022-10-20T18:21:35.994Z,100070.50
2022-10-20T18:24:05.731Z,100067.03
2022-10-20T18:26:36.598Z,100071.34
2022-10-20T18:29:06.002Z,100083.56
2022-10-20T18:31:35.592Z,100067.88
2022-10-20T18:34:07.139Z,100049.84
2022-10-20T18:36:40.677Z,100037.91
2022-10-20T18:39:11.701Z,100034.44
2022-10-20T18:41:43.346Z,100029.47
2022-10-20T18:44:13.474Z,100035.94
2022-10-20T18:46:42.074Z,100043.00
2022-10-20T18:49:12.626Z,100048.22
2022-10-20T18:51:42.663Z,100035.25
2022-10-20T18:54:10.548Z,100026.59
2022-10-20T18:56:38.547Z,100031.28
2022-10-20T18:59:08.762Z,100016.44
2022-10-20T19:01:38.078Z,100003.56
2022-10-20T19:04:07.005Z,100028.84
2022-10-20T19:06:37.588Z,100028.66
2022-10-20T19:09:08.474Z,100010.31
2022-10-20T19:11:37.863Z,100010.22
2022-10-20T19:14:06.685Z,100005.09
2022-10-20T19:16:35.499Z,100004.34
2022-10-20T19:19:06.134Z,99992.41
2022-10-20T19:21:35.007Z,99994.25
2022-10-20T19:24:08.209Z,99985.38
2022-10-20T19:26:39.185Z,99972.50
2022-10-20T19:29:10.234Z,99971.59
2022-10-20T19:31:40.972Z,99985.38
2022-10-20T19:34:11.670Z,100011.59
2022-10-20T19:36:41.032Z,100003.56
2022-10-20T19:39:12.513Z,100012.91
2022-10-20T19:41:40.482Z,99997.31
2022-10-20T19:44:12.365Z,99994.31
2022-10-20T19:46:42.087Z,99984.69
2022-10-20T19:49:10.639Z,99980.47
2022-10-20T19:51:39.678Z,99982.00
2022-10-20T19:54:08.245Z,99993.38
2022-10-20T19:56:38.640Z,99992.53
2022-10-20T19:59:07.882Z,99997.31
2022-10-20T20:01:36.199Z,100005.28
2022-10-20T20:04:08.490Z,100017.28
2022-10-20T20:06:36.566Z,100018.06
2022-10-20T20:09:08.689Z,100014.41
2022-10-20T20:11:38.914Z,100015.22
2022-10-20T20:14:08.693Z,100005.59
2022-10-20T20:16:37.165Z,100010.72
2022-10-20T20:19:05.181Z,100004.66
2022-10-20T20:21:32.915Z,99994.13
2022-10-20T20:24:02.553Z,99997.50
2022-10-20T20:26:32.262Z,99994.03
2022-10-20T20:29:01.582Z,99982.66
2022-10-20T20:31:30.006Z,99984.63
2022-10-20T20:33:58.165Z,99982.84
2022-10-20T20:36:27.597Z,99970.63
2022-10-20T20:38:57.882Z,99976.72
2022-10-20T20:41:27.583Z,99970.53
2022-10-20T20:43:55.680Z,99974.56
2022-10-20T20:46:28.797Z,99974.94
2022-10-20T20:48:57.079Z,99973.75
2022-10-20T20:51:27.005Z,99957.69
2022-10-20T20:53:54.758Z,99970.47
2022-10-20T20:56:24.601Z,99967.69
2022-10-20T20:58:55.805Z,99963.03
2022-10-20T21:01:27.385Z,99962.94
2022-10-20T21:03:56.510Z,99948.00
2022-10-20T21:06:33.993Z,99940.91
2022-10-20T21:09:06.874Z,99932.31
2022-10-20T21:11:34.627Z,99938.38
2022-10-20T21:14:02.583Z,99936.34
2022-10-20T21:16:34.997Z,99925.03
2022-10-20T21:19:05.355Z,99922.41
2022-10-20T21:21:35.585Z,99912.81
2022-10-20T21:24:05.441Z,99909.25
2022-10-20T21:26:34.412Z,99908.31
2022-10-20T21:29:02.057Z,99909.16
2022-10-20T21:31:32.138Z,99911.56
2022-10-20T21:34:02.156Z,99910.72
2022-10-20T21:36:32.397Z,99901.97
2022-10-20T21:39:00.691Z,99902.31
2022-10-20T21:41:30.575Z,99902.44
2022-10-20T21:44:00.059Z,99892.72
2022-10-20T21:46:29.799Z,99899.06
2022-10-20T21:49:00.962Z,99895.59
2022-10-20T21:51:30.509Z,99903.38
2022-10-20T21:53:59.371Z,99902.53
2022-10-20T21:56:27.411Z,99909.53
2022-10-20T21:58:55.340Z,99900.84
2022-10-20T22:01:24.706Z,99899.81
2022-10-20T22:03:54.144Z,99892.91
2022-10-20T22:06:25.385Z,99884.13
2022-10-20T22:08:55.082Z,99884.13
2022-10-20T22:11:25.242Z,99888.53
2022-10-20T22:13:53.091Z,99886.84
2022-10-20T22:16:23.438Z,99871.88
2022-10-20T22:18:55.482Z,99870.88
2022-10-20T22:21:25.409Z,99876.94
2022-10-20T22:23:54.386Z,99872.56
2022-10-20T22:26:22.564Z,99868.97
2022-10-20T22:28:51.211Z,99867.19
2022-10-20T22:31:19.248Z,99861.13
2022-10-20T22:33:46.939Z,99875.16
2022-10-20T22:36:14.570Z,99893.16
2022-10-20T22:38:43.523Z,99901.56
2022-10-20T22:41:11.822Z,99898.44
2022-10-20T22:43:39.835Z,99879.50
2022-10-20T22:46:08.204Z,99880.34
2022-10-20T22:48:36.298Z,99874.41
2022-10-20T22:51:05.659Z,99882.66
2022-10-20T22:53:33.318Z,99876.50
2022-10-20T22:56:08.169Z,99894.31
2022-10-20T22:58:36.421Z,99879.34
2022-10-20T23:01:07.964Z,99876.00
2022-10-20T23:03:35.766Z,99882.09
2022-10-20T23:06:07.348Z,99900.47
2022-10-20T23:08:38.939Z,99911.78
2022-10-20T23:11:08.012Z,99924.94
2022-10-20T23:13:36.035Z,99945.72
2022-10-20T23:16:04.391Z,99936.81
2022-10-20T23:18:32.083Z,99938.50
2022-10-20T23:20:59.815Z,99933.34
2022-10-20T23:23:27.636Z,99917.66
2022-10-20T23:25:56.286Z,99914.00
2022-10-20T23:28:26.729Z,99903.38
2022-10-20T23:30:54.436Z,99892.59
2022-10-20T23:33:22.149Z,99873.63
2022-10-20T23:35:49.862Z,99868.84
2022-10-20T23:38:17.580Z,99847.63
2022-10-20T23:40:45.317Z,99825.84
2022-10-20T23:43:13.014Z,99826.25
2022-10-20T23:45:43.843Z,99836.91
2022-10-20T23:48:11.574Z,99821.31
2022-10-20T23:50:39.260Z,99815.16
2022-10-20T23:53:07.036Z,99812.94
2022-10-20T23:55:34.889Z,99810.34
2022-10-20T23:58:02.764Z,99788.44
